sensor_id;sensor_type;location;lat;lon;timestamp;temperature;humidity
15690;DHT22;7945;48.816;11.506;2023-07-20T00:00:06;22.90;88.40
15690;DHT22;7945;48.816;11.506;2023-07-20T00:02:32;22.90;88.50
15690;DHT22;7945;48.816;11.506;2023-07-20T00:04:59;22.90;88.70
15690;DHT22;7945;48.816;11.506;2023-07-20T00:07:27;23.00;88.80
15690;DHT22;7945;48.816;11.506;2023-07-20T00:09:54;23.00;88.90
15690;DHT22;7945;48.816;11.506;2023-07-20T00:12:21;22.90;88.90
15690;DHT22;7945;48.816;11.506;2023-07-20T00:14:47;22.90;89.00
15690;DHT22;7945;48.816;11.506;2023-07-20T00:17:14;23.00;89.30
15690;DHT22;7945;48.816;11.506;2023-07-20T00:19:41;22.90;89.30
15690;DHT22;7945;48.816;11.506;2023-07-20T00:22:08;22.90;89.40
15690;DHT22;7945;48.816;11.506;2023-07-20T00:24:36;22.80;89.60
15690;DHT22;7945;48.816;11.506;2023-07-20T00:27:03;22.90;89.80
15690;DHT22;7945;48.816;11.506;2023-07-20T00:29:30;22.80;90.00
15690;DHT22;7945;48.816;11.506;2023-07-20T00:31:57;22.80;90.00
15690;DHT22;7945;48.816;11.506;2023-07-20T00:34:24;22.80;90.10
15690;DHT22;7945;48.816;11.506;2023-07-20T00:36:51;22.70;90.20
15690;DHT22;7945;48.816;11.506;2023-07-20T00:39:18;22.70;90.30
15690;DHT22;7945;48.816;11.506;2023-07-20T00:41:46;22.60;90.40
15690;DHT22;7945;48.816;11.506;2023-07-20T00:44:13;22.60;90.50
15690;DHT22;7945;48.816;11.506;2023-07-20T00:46:39;23.70;90.80
15690;DHT22;7945;48.816;11.506;2023-07-20T00:49:07;22.60;90.50
15690;DHT22;7945;48.816;11.506;2023-07-20T00:51:34;22.50;90.60
15690;DHT22;7945;48.816;11.506;2023-07-20T00:54:01;22.40;90.70
15690;DHT22;7945;48.816;11.506;2023-07-20T00:56:28;22.40;90.80
15690;DHT22;7945;48.816;11.506;2023-07-20T00:58:56;22.40;91.00
15690;DHT22;7945;48.816;11.506;2023-07-20T01:01:23;22.30;91.00
15690;DHT22;7945;48.816;11.506;2023-07-20T01:03:50;22.30;91.10
15690;DHT22;7945;48.816;11.506;2023-07-20T01:06:25;22.30;91.20
15690;DHT22;7945;48.816;11.506;2023-07-20T01:09:02;22.30;91.30
15690;DHT22;7945;48.816;11.506;2023-07-20T01:11:36;22.20;91.30
15690;DHT22;7945;48.816;11.506;2023-07-20T01:14:05;22.20;91.40
15690;DHT22;7945;48.816;11.506;2023-07-20T01:16:33;22.20;91.40
15690;DHT22;7945;48.816;11.506;2023-07-20T01:19:03;22.10;91.40
15690;DHT22;7945;48.816;11.506;2023-07-20T01:21:34;22.10;91.50
15690;DHT22;7945;48.816;11.506;2023-07-20T01:24:32;22.00;91.60
15690;DHT22;7945;48.816;11.506;2023-07-20T01:27:23;21.90;91.80
15690;DHT22;7945;48.816;11.506;2023-07-20T01:33:02;21.80;92.20
15690;DHT22;7945;48.816;11.506;2023-07-20T01:35:30;21.70;92.20
15690;DHT22;7945;48.816;11.506;2023-07-20T01:37:58;21.70;92.20
15690;DHT22;7945;48.816;11.506;2023-07-20T01:40:26;21.70;92.20
15690;DHT22;7945;48.816;11.506;2023-07-20T01:42:53;21.70;92.30
15690;DHT22;7945;48.816;11.506;2023-07-20T01:45:20;21.70;92.30
15690;DHT22;7945;48.816;11.506;2023-07-20T01:47:47;21.70;92.40
15690;DHT22;7945;48.816;11.506;2023-07-20T01:50:15;21.60;92.50
15690;DHT22;7945;48.816;11.506;2023-07-20T01:52:41;21.60;92.60
15690;DHT22;7945;48.816;11.506;2023-07-20T01:55:08;21.50;92.70
15690;DHT22;7945;48.816;11.506;2023-07-20T01:57:35;21.50;92.80
15690;DHT22;7945;48.816;11.506;2023-07-20T02:00:03;21.50;92.90
15690;DHT22;7945;48.816;11.506;2023-07-20T02:02:30;21.60;93.00
15690;DHT22;7945;48.816;11.506;2023-07-20T02:04:56;21.60;93.10
15690;DHT22;7945;48.816;11.506;2023-07-20T02:07:25;21.50;93.10
15690;DHT22;7945;48.816;11.506;2023-07-20T02:09:52;21.50;93.20
15690;DHT22;7945;48.816;11.506;2023-07-20T02:12:18;21.50;93.10
15690;DHT22;7945;48.816;11.506;2023-07-20T02:14:45;21.60;93.10
15690;DHT22;7945;48.816;11.506;2023-07-20T02:17:13;21.50;93.20
15690;DHT22;7945;48.816;11.506;2023-07-20T02:19:40;21.50;93.20
15690;DHT22;7945;48.816;11.506;2023-07-20T02:22:07;21.50;93.20
15690;DHT22;7945;48.816;11.506;2023-07-20T02:24:36;21.50;93.30
15690;DHT22;7945;48.816;11.506;2023-07-20T02:27:03;21.40;93.40
15690;DHT22;7945;48.816;11.506;2023-07-20T02:29:29;21.30;93.50
15690;DHT22;7945;48.816;11.506;2023-07-20T02:31:56;21.20;93.60
15690;DHT22;7945;48.816;11.506;2023-07-20T02:34:23;21.20;93.70
15690;DHT22;7945;48.816;11.506;2023-07-20T02:36:49;21.20;93.70
15690;DHT22;7945;48.816;11.506;2023-07-20T02:39:16;21.20;93.70
15690;DHT22;7945;48.816;11.506;2023-07-20T02:41:44;21.20;93.70
15690;DHT22;7945;48.816;11.506;2023-07-20T02:44:11;21.30;93.70
15690;DHT22;7945;48.816;11.506;2023-07-20T02:46:38;21.30;93.60
15690;DHT22;7945;48.816;11.506;2023-07-20T02:49:04;21.30;93.50
15690;DHT22;7945;48.816;11.506;2023-07-20T02:51:31;21.30;93.50
15690;DHT22;7945;48.816;11.506;2023-07-20T02:53:58;21.30;93.40
15690;DHT22;7945;48.816;11.506;2023-07-20T02:56:25;21.30;93.30
15690;DHT22;7945;48.816;11.506;2023-07-20T02:58:53;21.30;93.20
15690;DHT22;7945;48.816;11.506;2023-07-20T03:01:20;21.30;93.10
15690;DHT22;7945;48.816;11.506;2023-07-20T03:03:48;21.30;93.00
15690;DHT22;7945;48.816;11.506;2023-07-20T03:06:15;21.30;93.20
15690;DHT22;7945;48.816;11.506;2023-07-20T03:08:43;21.30;92.90
15690;DHT22;7945;48.816;11.506;2023-07-20T03:11:13;21.20;92.80
15690;DHT22;7945;48.816;11.506;2023-07-20T03:13:40;21.20;92.80
15690;DHT22;7945;48.816;11.506;2023-07-20T03:16:08;21.10;92.80
15690;DHT22;7945;48.816;11.506;2023-07-20T03:18:36;21.10;92.90
15690;DHT22;7945;48.816;11.506;2023-07-20T03:21:03;21.10;92.90
15690;DHT22;7945;48.816;11.506;2023-07-20T03:23:30;21.10;92.90
15690;DHT22;7945;48.816;11.506;2023-07-20T03:25:57;21.40;93.10
15690;DHT22;7945;48.816;11.506;2023-07-20T03:28:24;21.40;92.60
15690;DHT22;7945;48.816;11.506;2023-07-20T03:30:53;21.30;92.60
15690;DHT22;7945;48.816;11.506;2023-07-20T03:33:22;21.30;92.60
15690;DHT22;7945;48.816;11.506;2023-07-20T03:35:48;21.30;92.70
15690;DHT22;7945;48.816;11.506;2023-07-20T03:38:15;21.20;92.70
15690;DHT22;7945;48.816;11.506;2023-07-20T03:40:49;21.20;92.70
15690;DHT22;7945;48.816;11.506;2023-07-20T03:43:16;21.10;92.80
15690;DHT22;7945;48.816;11.506;2023-07-20T03:45:43;21.10;92.80
15690;DHT22;7945;48.816;11.506;2023-07-20T03:48:10;21.10;92.90
15690;DHT22;7945;48.816;11.506;2023-07-20T03:50:39;21.10;92.90
15690;DHT22;7945;48.816;11.506;2023-07-20T03:53:05;21.10;92.80
15690;DHT22;7945;48.816;11.506;2023-07-20T03:55:32;21.10;92.80
15690;DHT22;7945;48.816;11.506;2023-07-20T03:57:59;21.10;92.70
15690;DHT22;7945;48.816;11.506;2023-07-20T04:00:26;21.00;92.60
15690;DHT22;7945;48.816;11.506;2023-07-20T04:02:52;21.00;92.50
15690;DHT22;7945;48.816;11.506;2023-07-20T04:05:19;21.00;92.40
15690;DHT22;7945;48.816;11.506;2023-07-20T04:07:47;21.00;92.40
15690;DHT22;7945;48.816;11.506;2023-07-20T04:10:14;21.00;92.30
15690;DHT22;7945;48.816;11.506;2023-07-20T04:12:41;21.00;92.20
15690;DHT22;7945;48.816;11.506;2023-07-20T04:15:09;21.00;92.10
15690;DHT22;7945;48.816;11.506;2023-07-20T04:17:36;21.00;92.10
15690;DHT22;7945;48.816;11.506;2023-07-20T04:20:03;20.90;91.90
15690;DHT22;7945;48.816;11.506;2023-07-20T04:22:31;20.90;91.90
15690;DHT22;7945;48.816;11.506;2023-07-20T04:24:59;20.80;91.80
15690;DHT22;7945;48.816;11.506;2023-07-20T04:27:26;20.80;91.80
15690;DHT22;7945;48.816;11.506;2023-07-20T04:29:53;20.80;91.80
15690;DHT22;7945;48.816;11.506;2023-07-20T04:32:20;20.80;91.70
15690;DHT22;7945;48.816;11.506;2023-07-20T04:34:46;21.30;91.70
15690;DHT22;7945;48.816;11.506;2023-07-20T04:37:13;20.90;91.50
15690;DHT22;7945;48.816;11.506;2023-07-20T04:39:40;20.90;91.40
15690;DHT22;7945;48.816;11.506;2023-07-20T04:42:08;20.90;91.30
15690;DHT22;7945;48.816;11.506;2023-07-20T04:44:35;20.80;91.30
15690;DHT22;7945;48.816;11.506;2023-07-20T04:47:02;20.90;91.30
15690;DHT22;7945;48.816;11.506;2023-07-20T04:49:29;20.90;91.20
15690;DHT22;7945;48.816;11.506;2023-07-20T04:51:55;20.90;91.20
15690;DHT22;7945;48.816;11.506;2023-07-20T04:54:22;20.80;91.10
15690;DHT22;7945;48.816;11.506;2023-07-20T04:56:49;20.80;91.10
15690;DHT22;7945;48.816;11.506;2023-07-20T04:59:17;20.90;91.10
15690;DHT22;7945;48.816;11.506;2023-07-20T05:01:44;20.90;91.00
15690;DHT22;7945;48.816;11.506;2023-07-20T05:04:11;20.90;90.90
15690;DHT22;7945;48.816;11.506;2023-07-20T05:06:37;20.90;90.80
15690;DHT22;7945;48.816;11.506;2023-07-20T05:09:04;20.90;90.80
15690;DHT22;7945;48.816;11.506;2023-07-20T05:11:33;20.90;90.70
15690;DHT22;7945;48.816;11.506;2023-07-20T05:14:00;20.90;90.70
15690;DHT22;7945;48.816;11.506;2023-07-20T05:16:28;21.00;90.50
15690;DHT22;7945;48.816;11.506;2023-07-20T05:18:55;21.00;90.50
15690;DHT22;7945;48.816;11.506;2023-07-20T05:21:22;20.90;90.40
15690;DHT22;7945;48.816;11.506;2023-07-20T05:23:49;20.90;90.50
15690;DHT22;7945;48.816;11.506;2023-07-20T05:26:16;21.00;90.50
15690;DHT22;7945;48.816;11.506;2023-07-20T05:28:43;21.00;90.40
15690;DHT22;7945;48.816;11.506;2023-07-20T05:31:09;21.00;90.30
15690;DHT22;7945;48.816;11.506;2023-07-20T05:33:37;20.90;90.20
15690;DHT22;7945;48.816;11.506;2023-07-20T05:36:04;21.00;90.30
15690;DHT22;7945;48.816;11.506;2023-07-20T05:38:31;21.00;90.30
15690;DHT22;7945;48.816;11.506;2023-07-20T05:40:59;21.00;90.20
15690;DHT22;7945;48.816;11.506;2023-07-20T05:43:27;21.10;90.20
15690;DHT22;7945;48.816;11.506;2023-07-20T05:45:54;21.10;90.10
15690;DHT22;7945;48.816;11.506;2023-07-20T05:48:21;21.10;90.20
15690;DHT22;7945;48.816;11.506;2023-07-20T05:50:49;21.10;90.20
15690;DHT22;7945;48.816;11.506;2023-07-20T05:53:16;21.30;90.30
15690;DHT22;7945;48.816;11.506;2023-07-20T05:55:43;21.50;90.10
15690;DHT22;7945;48.816;11.506;2023-07-20T05:58:09;21.60;89.70
15690;DHT22;7945;48.816;11.506;2023-07-20T06:00:36;21.70;89.40
15690;DHT22;7945;48.816;11.506;2023-07-20T06:03:03;21.90;89.20
15690;DHT22;7945;48.816;11.506;2023-07-20T06:05:30;22.00;88.80
15690;DHT22;7945;48.816;11.506;2023-07-20T06:07:58;22.20;88.30
15690;DHT22;7945;48.816;11.506;2023-07-20T06:10:25;22.30;88.80
15690;DHT22;7945;48.816;11.506;2023-07-20T06:15:36;22.30;86.80
15690;DHT22;7945;48.816;11.506;2023-07-20T06:18:04;22.40;87.40
15690;DHT22;7945;48.816;11.506;2023-07-20T06:20:31;22.30;87.50
15690;DHT22;7945;48.816;11.506;2023-07-20T06:22:58;22.40;87.50
15690;DHT22;7945;48.816;11.506;2023-07-20T06:25:24;22.50;87.50
15690;DHT22;7945;48.816;11.506;2023-07-20T06:27:51;22.60;87.30
15690;DHT22;7945;48.816;11.506;2023-07-20T06:30:18;22.70;87.10
15690;DHT22;7945;48.816;11.506;2023-07-20T06:32:46;22.90;86.80
15690;DHT22;7945;48.816;11.506;2023-07-20T06:35:13;23.00;86.20
15690;DHT22;7945;48.816;11.506;2023-07-20T06:37:40;23.20;85.60
15690;DHT22;7945;48.816;11.506;2023-07-20T06:40:07;23.30;84.80
15690;DHT22;7945;48.816;11.506;2023-07-20T06:42:35;23.50;84.70
15690;DHT22;7945;48.816;11.506;2023-07-20T06:45:02;23.60;84.20
15690;DHT22;7945;48.816;11.506;2023-07-20T06:47:29;23.60;84.00
15690;DHT22;7945;48.816;11.506;2023-07-20T06:49:58;23.80;83.60
15690;DHT22;7945;48.816;11.506;2023-07-20T06:52:24;23.70;83.30
15690;DHT22;7945;48.816;11.506;2023-07-20T06:54:51;23.80;83.50
15690;DHT22;7945;48.816;11.506;2023-07-20T06:57:18;23.80;83.80
15690;DHT22;7945;48.816;11.506;2023-07-20T06:59:45;23.80;84.10
15690;DHT22;7945;48.816;11.506;2023-07-20T07:02:12;23.90;83.80
15690;DHT22;7945;48.816;11.506;2023-07-20T07:04:39;23.80;83.80
15690;DHT22;7945;48.816;11.506;2023-07-20T07:07:07;23.60;84.30
15690;DHT22;7945;48.816;11.506;2023-07-20T07:09:34;23.70;84.60
15690;DHT22;7945;48.816;11.506;2023-07-20T07:12:01;23.70;84.20
15690;DHT22;7945;48.816;11.506;2023-07-20T07:14:28;23.80;84.10
15690;DHT22;7945;48.816;11.506;2023-07-20T07:16:54;23.70;83.80
15690;DHT22;7945;48.816;11.506;2023-07-20T07:19:21;23.70;83.90
15690;DHT22;7945;48.816;11.506;2023-07-20T07:21:48;23.60;84.10
15690;DHT22;7945;48.816;11.506;2023-07-20T07:24:16;23.70;83.90
15690;DHT22;7945;48.816;11.506;2023-07-20T07:26:42;23.90;83.90
15690;DHT22;7945;48.816;11.506;2023-07-20T07:29:09;24.40;83.80
15690;DHT22;7945;48.816;11.506;2023-07-20T07:31:36;24.00;83.30
15690;DHT22;7945;48.816;11.506;2023-07-20T07:34:04;24.00;83.20
15690;DHT22;7945;48.816;11.506;2023-07-20T07:36:31;24.10;83.60
15690;DHT22;7945;48.816;11.506;2023-07-20T07:38:58;24.10;83.20
15690;DHT22;7945;48.816;11.506;2023-07-20T07:41:26;24.10;83.00
15690;DHT22;7945;48.816;11.506;2023-07-20T07:43:53;24.20;82.70
15690;DHT22;7945;48.816;11.506;2023-07-20T07:46:19;24.10;82.70
15690;DHT22;7945;48.816;11.506;2023-07-20T07:48:46;24.10;82.70
15690;DHT22;7945;48.816;11.506;2023-07-20T07:51:13;24.00;83.10
15690;DHT22;7945;48.816;11.506;2023-07-20T07:53:40;24.10;83.30
15690;DHT22;7945;48.816;11.506;2023-07-20T07:56:09;24.20;82.70
15690;DHT22;7945;48.816;11.506;2023-07-20T07:58:37;24.20;82.70
15690;DHT22;7945;48.816;11.506;2023-07-20T08:01:04;24.20;83.00
15690;DHT22;7945;48.816;11.506;2023-07-20T08:03:30;24.10;82.70
15690;DHT22;7945;48.816;11.506;2023-07-20T08:05:57;23.90;83.00
15690;DHT22;7945;48.816;11.506;2023-07-20T08:08:25;23.80;83.00
15690;DHT22;7945;48.816;11.506;2023-07-20T08:10:53;23.70;83.10
15690;DHT22;7945;48.816;11.506;2023-07-20T08:13:20;23.70;82.90
15690;DHT22;7945;48.816;11.506;2023-07-20T08:15:50;23.80;82.80
15690;DHT22;7945;48.816;11.506;2023-07-20T08:18:18;23.90;82.80
15690;DHT22;7945;48.816;11.506;2023-07-20T08:20:45;23.90;82.00
15690;DHT22;7945;48.816;11.506;2023-07-20T08:23:11;23.90;81.90
15690;DHT22;7945;48.816;11.506;2023-07-20T08:25:38;23.90;81.70
15690;DHT22;7945;48.816;11.506;2023-07-20T08:28:09;24.00;81.20
15690;DHT22;7945;48.816;11.506;2023-07-20T08:30:43;24.10;80.30
15690;DHT22;7945;48.816;11.506;2023-07-20T08:33:13;24.10;79.40
15690;DHT22;7945;48.816;11.506;2023-07-20T08:35:40;24.10;79.40
15690;DHT22;7945;48.816;11.506;2023-07-20T08:38:07;24.10;79.40
15690;DHT22;7945;48.816;11.506;2023-07-20T08:40:39;24.10;79.90
15690;DHT22;7945;48.816;11.506;2023-07-20T08:43:06;24.20;79.90
15690;DHT22;7945;48.816;11.506;2023-07-20T08:45:33;24.20;79.90
15690;DHT22;7945;48.816;11.506;2023-07-20T08:48:01;24.20;79.50
15690;DHT22;7945;48.816;11.506;2023-07-20T08:50:30;24.30;79.70
15690;DHT22;7945;48.816;11.506;2023-07-20T08:52:58;24.20;77.60
15690;DHT22;7945;48.816;11.506;2023-07-20T08:55:26;24.20;77.20
15690;DHT22;7945;48.816;11.506;2023-07-20T08:57:54;24.30;77.60
15690;DHT22;7945;48.816;11.506;2023-07-20T09:00:22;24.30;78.70
15690;DHT22;7945;48.816;11.506;2023-07-20T09:02:50;24.30;78.60
15690;DHT22;7945;48.816;11.506;2023-07-20T09:05:18;24.30;78.30
15690;DHT22;7945;48.816;11.506;2023-07-20T09:07:46;24.40;78.40
15690;DHT22;7945;48.816;11.506;2023-07-20T09:10:13;24.40;78.30
15690;DHT22;7945;48.816;11.506;2023-07-20T09:12:41;24.10;78.40
15690;DHT22;7945;48.816;11.506;2023-07-20T09:15:09;24.10;78.70
15690;DHT22;7945;48.816;11.506;2023-07-20T09:17:36;24.10;78.80
15690;DHT22;7945;48.816;11.506;2023-07-20T09:20:05;24.10;78.00
15690;DHT22;7945;48.816;11.506;2023-07-20T09:22:36;24.20;77.80
15690;DHT22;7945;48.816;11.506;2023-07-20T09:25:06;24.40;77.30
15690;DHT22;7945;48.816;11.506;2023-07-20T09:27:36;24.60;76.60
15690;DHT22;7945;48.816;11.506;2023-07-20T09:30:05;24.60;74.00
15690;DHT22;7945;48.816;11.506;2023-07-20T09:32:38;24.60;74.80
15690;DHT22;7945;48.816;11.506;2023-07-20T09:35:07;24.60;74.40
15690;DHT22;7945;48.816;11.506;2023-07-20T09:37:38;24.60;73.70
15690;DHT22;7945;48.816;11.506;2023-07-20T09:40:08;24.60;72.60
15690;DHT22;7945;48.816;11.506;2023-07-20T09:42:36;24.70;71.40
15690;DHT22;7945;48.816;11.506;2023-07-20T09:45:07;24.70;71.70
15690;DHT22;7945;48.816;11.506;2023-07-20T09:47:36;24.80;71.40
15690;DHT22;7945;48.816;11.506;2023-07-20T09:50:04;24.70;70.70
15690;DHT22;7945;48.816;11.506;2023-07-20T09:52:40;24.70;70.90
15690;DHT22;7945;48.816;11.506;2023-07-20T09:55:08;24.90;69.90
15690;DHT22;7945;48.816;11.506;2023-07-20T09:57:37;25.10;69.10
15690;DHT22;7945;48.816;11.506;2023-07-20T10:00:05;25.20;69.30
15690;DHT22;7945;48.816;11.506;2023-07-20T10:02:41;25.30;67.90
15690;DHT22;7945;48.816;11.506;2023-07-20T10:05:09;25.50;68.30
15690;DHT22;7945;48.816;11.506;2023-07-20T10:07:43;25.50;66.10
15690;DHT22;7945;48.816;11.506;2023-07-20T10:10:11;25.40;66.10
15690;DHT22;7945;48.816;11.506;2023-07-20T10:12:41;25.20;66.20
15690;DHT22;7945;48.816;11.506;2023-07-20T10:15:12;25.10;67.30
15690;DHT22;7945;48.816;11.506;2023-07-20T10:17:47;25.10;66.20
15690;DHT22;7945;48.816;11.506;2023-07-20T10:20:16;25.20;66.20
15690;DHT22;7945;48.816;11.506;2023-07-20T10:22:47;25.30;66.30
15690;DHT22;7945;48.816;11.506;2023-07-20T10:25:17;25.70;65.30
15690;DHT22;7945;48.816;11.506;2023-07-20T10:27:45;25.90;63.60
15690;DHT22;7945;48.816;11.506;2023-07-20T10:30:13;26.20;61.80
15690;DHT22;7945;48.816;11.506;2023-07-20T10:32:41;26.50;61.50
15690;DHT22;7945;48.816;11.506;2023-07-20T10:35:15;26.50;61.50
15690;DHT22;7945;48.816;11.506;2023-07-20T10:37:47;26.50;60.80
15690;DHT22;7945;48.816;11.506;2023-07-20T10:40:27;26.50;62.70
15690;DHT22;7945;48.816;11.506;2023-07-20T10:42:57;26.70;61.40
15690;DHT22;7945;48.816;11.506;2023-07-20T10:45:34;26.80;60.20
15690;DHT22;7945;48.816;11.506;2023-07-20T10:48:03;26.80;57.90
15690;DHT22;7945;48.816;11.506;2023-07-20T10:50:30;26.70;58.30
15690;DHT22;7945;48.816;11.506;2023-07-20T10:53:11;26.70;58.10
15690;DHT22;7945;48.816;11.506;2023-07-20T10:55:40;26.80;58.60
15690;DHT22;7945;48.816;11.506;2023-07-20T10:58:08;26.90;58.70
15690;DHT22;7945;48.816;11.506;2023-07-20T11:00:36;27.10;57.90
15690;DHT22;7945;48.816;11.506;2023-07-20T11:03:04;27.30;57.80
15690;DHT22;7945;48.816;11.506;2023-07-20T11:05:39;27.50;58.20
15690;DHT22;7945;48.816;11.506;2023-07-20T11:08:09;27.60;57.00
15690;DHT22;7945;48.816;11.506;2023-07-20T11:10:37;27.20;56.80
15690;DHT22;7945;48.816;11.506;2023-07-20T11:13:22;27.20;56.80
15690;DHT22;7945;48.816;11.506;2023-07-20T11:16:02;27.40;56.30
15690;DHT22;7945;48.816;11.506;2023-07-20T11:18:33;27.50;57.20
15690;DHT22;7945;48.816;11.506;2023-07-20T11:21:01;27.40;55.90
15690;DHT22;7945;48.816;11.506;2023-07-20T11:23:29;27.50;56.00
15690;DHT22;7945;48.816;11.506;2023-07-20T11:25:58;27.60;55.20
15690;DHT22;7945;48.816;11.506;2023-07-20T11:28:30;27.50;55.20
15690;DHT22;7945;48.816;11.506;2023-07-20T11:30:56;27.20;55.70
15690;DHT22;7945;48.816;11.506;2023-07-20T11:33:23;26.90;56.60
15690;DHT22;7945;48.816;11.506;2023-07-20T11:35:50;27.00;56.30
15690;DHT22;7945;48.816;11.506;2023-07-20T11:38:18;27.10;55.70
15690;DHT22;7945;48.816;11.506;2023-07-20T11:40:45;27.30;56.10
15690;DHT22;7945;48.816;11.506;2023-07-20T11:43:12;27.60;56.00
15690;DHT22;7945;48.816;11.506;2023-07-20T11:45:41;27.70;54.90
15690;DHT22;7945;48.816;11.506;2023-07-20T11:48:14;27.70;54.90
15690;DHT22;7945;48.816;11.506;2023-07-20T11:50:41;27.50;54.80
15690;DHT22;7945;48.816;11.506;2023-07-20T11:53:08;27.30;55.40
15690;DHT22;7945;48.816;11.506;2023-07-20T11:55:35;27.00;62.70
15690;DHT22;7945;48.816;11.506;2023-07-20T11:58:03;26.80;59.50
15690;DHT22;7945;48.816;11.506;2023-07-20T12:00:30;26.90;58.20
15690;DHT22;7945;48.816;11.506;2023-07-20T12:02:58;26.90;57.10
15690;DHT22;7945;48.816;11.506;2023-07-20T12:05:25;27.20;56.40
15690;DHT22;7945;48.816;11.506;2023-07-20T12:07:53;27.40;55.10
15690;DHT22;7945;48.816;11.506;2023-07-20T12:10:24;27.50;54.60
15690;DHT22;7945;48.816;11.506;2023-07-20T12:12:51;27.60;54.60
15690;DHT22;7945;48.816;11.506;2023-07-20T12:15:21;27.50;54.50
15690;DHT22;7945;48.816;11.506;2023-07-20T12:17:50;27.50;54.00
15690;DHT22;7945;48.816;11.506;2023-07-20T12:20:30;27.50;54.00
15690;DHT22;7945;48.816;11.506;2023-07-20T12:23:00;27.50;53.80
15690;DHT22;7945;48.816;11.506;2023-07-20T12:25:34;27.60;55.30
15690;DHT22;7945;48.816;11.506;2023-07-20T12:28:01;27.70;54.20
15690;DHT22;7945;48.816;11.506;2023-07-20T12:30:29;27.80;54.30
15690;DHT22;7945;48.816;11.506;2023-07-20T12:32:56;27.60;53.30
15690;DHT22;7945;48.816;11.506;2023-07-20T12:35:22;27.50;53.20
15690;DHT22;7945;48.816;11.506;2023-07-20T12:37:50;27.60;53.50
15690;DHT22;7945;48.816;11.506;2023-07-20T12:40:19;27.70;52.90
15690;DHT22;7945;48.816;11.506;2023-07-20T12:42:46;27.90;52.90
15690;DHT22;7945;48.816;11.506;2023-07-20T12:45:13;27.90;52.30
15690;DHT22;7945;48.816;11.506;2023-07-20T12:47:40;27.90;51.90
15690;DHT22;7945;48.816;11.506;2023-07-20T12:50:08;27.70;52.20
15690;DHT22;7945;48.816;11.506;2023-07-20T12:52:36;27.70;52.30
15690;DHT22;7945;48.816;11.506;2023-07-20T12:55:06;27.70;52.40
15690;DHT22;7945;48.816;11.506;2023-07-20T12:57:34;27.60;52.50
15690;DHT22;7945;48.816;11.506;2023-07-20T13:00:00;27.90;52.70
15690;DHT22;7945;48.816;11.506;2023-07-20T13:02:29;27.50;52.60
15690;DHT22;7945;48.816;11.506;2023-07-20T13:04:56;27.60;52.60
15690;DHT22;7945;48.816;11.506;2023-07-20T13:07:29;27.50;52.00
15690;DHT22;7945;48.816;11.506;2023-07-20T13:09:57;27.60;52.30
15690;DHT22;7945;48.816;11.506;2023-07-20T13:12:27;27.60;52.10
15690;DHT22;7945;48.816;11.506;2023-07-20T13:14:54;27.70;52.10
15690;DHT22;7945;48.816;11.506;2023-07-20T13:17:21;27.90;51.90
15690;DHT22;7945;48.816;11.506;2023-07-20T13:19:47;28.10;51.90
15690;DHT22;7945;48.816;11.506;2023-07-20T13:22:14;28.30;51.60
15690;DHT22;7945;48.816;11.506;2023-07-20T13:24:41;28.20;51.00
15690;DHT22;7945;48.816;11.506;2023-07-20T13:27:07;28.20;51.10
15690;DHT22;7945;48.816;11.506;2023-07-20T13:29:36;28.20;50.90
15690;DHT22;7945;48.816;11.506;2023-07-20T13:32:03;28.30;50.70
15690;DHT22;7945;48.816;11.506;2023-07-20T13:34:30;28.50;51.10
15690;DHT22;7945;48.816;11.506;2023-07-20T13:36:57;28.50;51.10
15690;DHT22;7945;48.816;11.506;2023-07-20T13:39:24;28.60;50.80
15690;DHT22;7945;48.816;11.506;2023-07-20T13:41:52;28.50;51.00
15690;DHT22;7945;48.816;11.506;2023-07-20T13:44:19;28.50;51.50
15690;DHT22;7945;48.816;11.506;2023-07-20T13:46:48;28.50;51.60
15690;DHT22;7945;48.816;11.506;2023-07-20T13:49:15;28.40;51.00
15690;DHT22;7945;48.816;11.506;2023-07-20T13:51:42;28.40;51.00
15690;DHT22;7945;48.816;11.506;2023-07-20T13:54:08;28.40;51.10
15690;DHT22;7945;48.816;11.506;2023-07-20T13:56:35;28.30;50.70
15690;DHT22;7945;48.816;11.506;2023-07-20T13:59:02;28.50;51.20
15690;DHT22;7945;48.816;11.506;2023-07-20T14:01:29;28.40;51.20
15690;DHT22;7945;48.816;11.506;2023-07-20T14:03:59;28.50;51.40
15690;DHT22;7945;48.816;11.506;2023-07-20T14:08:55;28.70;50.50
15690;DHT22;7945;48.816;11.506;2023-07-20T14:11:23;28.90;50.90
15690;DHT22;7945;48.816;11.506;2023-07-20T14:13:49;28.90;50.50
15690;DHT22;7945;48.816;11.506;2023-07-20T14:16:17;29.00;50.60
15690;DHT22;7945;48.816;11.506;2023-07-20T14:18:43;29.00;49.80
15690;DHT22;7945;48.816;11.506;2023-07-20T14:21:14;28.90;50.20
15690;DHT22;7945;48.816;11.506;2023-07-20T14:23:40;29.30;50.00
15690;DHT22;7945;48.816;11.506;2023-07-20T14:26:07;29.00;50.10
15690;DHT22;7945;48.816;11.506;2023-07-20T14:28:35;29.10;50.60
15690;DHT22;7945;48.816;11.506;2023-07-20T14:31:01;28.90;50.30
15690;DHT22;7945;48.816;11.506;2023-07-20T14:33:28;29.00;50.50
15690;DHT22;7945;48.816;11.506;2023-07-20T14:35:55;29.00;50.80
15690;DHT22;7945;48.816;11.506;2023-07-20T14:38:23;29.00;50.50
15690;DHT22;7945;48.816;11.506;2023-07-20T14:40:51;28.90;51.00
15690;DHT22;7945;48.816;11.506;2023-07-20T14:43:18;28.70;50.70
15690;DHT22;7945;48.816;11.506;2023-07-20T14:45:44;28.60;50.40
15690;DHT22;7945;48.816;11.506;2023-07-20T14:48:11;28.60;50.80
15690;DHT22;7945;48.816;11.506;2023-07-20T14:50:38;28.60;50.80
15690;DHT22;7945;48.816;11.506;2023-07-20T14:53:05;28.50;50.40
15690;DHT22;7945;48.816;11.506;2023-07-20T14:55:34;28.50;50.50
15690;DHT22;7945;48.816;11.506;2023-07-20T14:58:01;28.60;50.40
15690;DHT22;7945;48.816;11.506;2023-07-20T15:00:28;28.60;50.70
15690;DHT22;7945;48.816;11.506;2023-07-20T15:02:55;28.50;50.80
15690;DHT22;7945;48.816;11.506;2023-07-20T15:05:23;28.30;50.70
15690;DHT22;7945;48.816;11.506;2023-07-20T15:07:52;28.20;50.90
15690;DHT22;7945;48.816;11.506;2023-07-20T15:10:19;28.10;51.20
15690;DHT22;7945;48.816;11.506;2023-07-20T15:12:47;28.00;51.30
15690;DHT22;7945;48.816;11.506;2023-07-20T15:15:14;28.00;51.00
15690;DHT22;7945;48.816;11.506;2023-07-20T15:17:42;28.00;50.60
15690;DHT22;7945;48.816;11.506;2023-07-20T15:20:12;28.00;51.00
15690;DHT22;7945;48.816;11.506;2023-07-20T15:22:39;28.00;51.60
15690;DHT22;7945;48.816;11.506;2023-07-20T15:25:06;28.10;50.90
15690;DHT22;7945;48.816;11.506;2023-07-20T15:27:34;28.10;50.70
15690;DHT22;7945;48.816;11.506;2023-07-20T15:30:02;28.20;50.90
15690;DHT22;7945;48.816;11.506;2023-07-20T15:32:29;28.30;50.60
15690;DHT22;7945;48.816;11.506;2023-07-20T15:34:56;28.20;50.30
15690;DHT22;7945;48.816;11.506;2023-07-20T15:37:23;28.20;50.30
15690;DHT22;7945;48.816;11.506;2023-07-20T15:39:50;28.20;49.90
15690;DHT22;7945;48.816;11.506;2023-07-20T15:42:17;28.10;50.10